createdAt,value
2023-01-29T00:02:05.356Z,10.18
2023-01-29T00:04:32.025Z,10.02
2023-01-29T00:06:59.157Z,9.20
2023-01-29T00:09:29.072Z,9.48
2023-01-29T00:11:55.511Z,9.77
2023-01-29T00:14:22.132Z,10.38
2023-01-29T00:16:55.810Z,9.40
2023-01-29T00:19:22.430Z,9.50
2023-01-29T00:21:51.603Z,10.20
2023-01-29T00:24:18.211Z,10.27
2023-01-29T00:26:44.791Z,10.30
2023-01-29T00:29:13.981Z,9.73
2023-01-29T00:31:40.576Z,10.02
2023-01-29T00:34:07.154Z,10.85
2023-01-29T00:36:33.663Z,11.25
2023-01-29T00:39:02.764Z,10.82
2023-01-29T00:41:49.918Z,11.30
2023-01-29T00:44:35.441Z,11.50
2023-01-29T00:47:27.797Z,12.23
2023-01-29T00:49:54.581Z,11.95
2023-01-29T00:52:24.064Z,12.52
2023-01-29T00:54:51.858Z,12.73
2023-01-29T00:57:18.405Z,12.63
2023-01-29T00:59:48.295Z,12.20
2023-01-29T01:02:37.210Z,12.35
2023-01-29T01:05:06.115Z,11.98
2023-01-29T01:07:32.636Z,11.90
2023-01-29T01:10:17.825Z,11.70
2023-01-29T01:12:44.545Z,13.43
2023-01-29T01:15:11.916Z,12.40
2023-01-29T01:17:38.481Z,12.98
2023-01-29T01:20:05.537Z,12.02
2023-01-29T01:22:32.033Z,13.20
2023-01-29T01:24:58.488Z,12.50
2023-01-29T01:27:25.698Z,12.90
2023-01-29T01:29:52.328Z,12.30
2023-01-29T01:32:18.872Z,11.45
2023-01-29T01:34:45.376Z,11.85
2023-01-29T01:37:12.168Z,10.48
2023-01-29T01:39:38.616Z,11.18
2023-01-29T01:42:14.167Z,9.90
2023-01-29T01:45:13.501Z,10.90
2023-01-29T01:47:51.385Z,10.45
2023-01-29T01:50:34.350Z,9.90
2023-01-29T01:53:17.093Z,10.05
2023-01-29T01:55:59.052Z,10.27
2023-01-29T02:01:12.745Z,10.20
2023-01-29T02:04:08.336Z,10.15
2023-01-29T02:06:54.586Z,10.05
2023-01-29T02:09:37.908Z,10.70
2023-01-29T02:12:11.530Z,9.90
2023-01-29T02:14:40.323Z,10.25
2023-01-29T02:17:13.197Z,10.65
2023-01-29T02:20:10.491Z,11.38
2023-01-29T02:22:56.148Z,11.82
2023-01-29T02:25:30.055Z,11.68
2023-01-29T02:28:30.730Z,11.25
2023-01-29T02:31:04.901Z,11.25
2023-01-29T02:33:41.104Z,10.35
2023-01-29T02:36:15.043Z,10.57
2023-01-29T02:38:53.412Z,11.32
2023-01-29T02:41:20.484Z,10.70
2023-01-29T02:44:05.984Z,10.43
2023-01-29T02:46:40.658Z,10.65
2023-01-29T02:49:17.304Z,10.82
2023-01-29T02:51:51.521Z,10.07
2023-01-29T02:54:27.705Z,11.32
2023-01-29T02:56:58.535Z,11.45
2023-01-29T02:59:53.816Z,11.65
2023-01-29T03:02:33.470Z,11.55
2023-01-29T03:05:07.745Z,13.05
2023-01-29T03:07:46.810Z,11.80
2023-01-29T03:10:28.082Z,12.80
2023-01-29T03:13:04.045Z,12.48
2023-01-29T03:15:39.054Z,12.57
2023-01-29T03:18:11.376Z,12.57
2023-01-29T03:20:51.787Z,13.20
2023-01-29T03:23:47.373Z,13.05
2023-01-29T03:26:35.255Z,12.00
2023-01-29T03:29:23.474Z,12.75
2023-01-29T03:32:04.426Z,12.75
2023-01-29T03:34:38.933Z,11.73
2023-01-29T03:37:13.841Z,13.27
2023-01-29T03:39:40.513Z,13.38
2023-01-29T03:42:31.059Z,13.48
2023-01-29T03:45:22.493Z,12.50
2023-01-29T03:48:00.112Z,13.55
2023-01-29T03:50:39.440Z,13.73
2023-01-29T03:53:19.324Z,13.85
2023-01-29T03:55:58.314Z,13.13
2023-01-29T03:58:51.132Z,14.05
2023-01-29T04:01:24.969Z,13.18
2023-01-29T04:04:03.607Z,13.63
2023-01-29T04:06:34.226Z,13.82
2023-01-29T04:09:13.710Z,14.52
2023-01-29T04:11:45.121Z,14.68
2023-01-29T04:14:13.882Z,14.18
2023-01-29T04:16:52.250Z,14.43
2023-01-29T04:19:18.872Z,13.90
2023-01-29T04:21:48.441Z,13.35
2023-01-29T04:24:15.387Z,13.32
2023-01-29T04:27:10.283Z,14.20
2023-01-29T04:29:53.553Z,13.88
2023-01-29T04:32:58.153Z,14.07
2023-01-29T04:35:50.768Z,14.23
2023-01-29T04:38:19.861Z,13.15
2023-01-29T04:41:08.856Z,13.93
2023-01-29T04:43:48.027Z,14.98
2023-01-29T04:46:25.750Z,13.48
2023-01-29T04:49:05.279Z,13.93
2023-01-29T04:51:40.746Z,14.32
2023-01-29T04:54:17.476Z,14.18
2023-01-29T04:56:46.933Z,15.90
2023-01-29T04:59:20.796Z,14.25
2023-01-29T05:01:48.644Z,14.95
2023-01-29T05:04:19.164Z,15.10
2023-01-29T05:06:46.827Z,13.65
2023-01-29T05:09:16.391Z,13.80
2023-01-29T05:11:45.510Z,15.15
2023-01-29T05:14:14.674Z,15.05
2023-01-29T05:16:57.110Z,15.00
2023-01-29T05:19:23.595Z,15.27
2023-01-29T05:21:50.552Z,14.65
2023-01-29T05:24:19.935Z,15.73
2023-01-29T05:27:07.599Z,15.18
2023-01-29T05:29:34.102Z,15.80
2023-01-29T05:32:01.010Z,15.02
2023-01-29T05:34:27.558Z,15.25
2023-01-29T05:36:54.052Z,15.40
2023-01-29T05:39:20.795Z,14.90
2023-01-29T05:41:47.647Z,14.05
2023-01-29T05:44:14.175Z,13.90
2023-01-29T05:46:40.705Z,15.10
2023-01-29T05:49:07.209Z,14.95
2023-01-29T05:51:33.738Z,15.73
2023-01-29T05:54:00.437Z,14.00
2023-01-29T05:56:26.889Z,15.65
2023-01-29T05:58:53.400Z,16.20
2023-01-29T06:01:22.554Z,15.57
2023-01-29T06:03:49.084Z,15.80
2023-01-29T06:06:16.449Z,17.00
2023-01-29T06:08:43.525Z,17.45
2023-01-29T06:11:16.433Z,18.23
2023-01-29T06:13:42.946Z,17.73
2023-01-29T06:16:11.021Z,18.23
2023-01-29T06:18:41.197Z,17.38
2023-01-29T06:21:12.212Z,18.60
2023-01-29T06:23:39.211Z,17.25
2023-01-29T06:26:08.590Z,19.33
2023-01-29T06:28:35.218Z,19.00
2023-01-29T06:31:21.049Z,19.20
2023-01-29T06:33:49.709Z,19.08
2023-01-29T06:36:19.172Z,20.08
2023-01-29T06:38:45.723Z,17.73
2023-01-29T06:41:16.266Z,19.63
2023-01-29T06:43:46.110Z,19.42
2023-01-29T06:46:12.770Z,19.45
2023-01-29T06:48:39.379Z,20.15
2023-01-29T06:51:08.358Z,20.35
2023-01-29T06:53:38.645Z,20.35
2023-01-29T06:56:06.248Z,21.05
2023-01-29T06:58:33.306Z,21.48
2023-01-29T07:01:11.121Z,20.30
2023-01-29T07:03:39.277Z,20.00
2023-01-29T07:06:06.935Z,20.88
2023-01-29T07:08:37.601Z,21.48
2023-01-29T07:11:04.915Z,19.88
2023-01-29T07:13:31.634Z,20.15
2023-01-29T07:15:59.618Z,19.05
2023-01-29T07:18:27.510Z,20.23
2023-01-29T07:20:54.108Z,19.52
2023-01-29T07:23:21.121Z,20.55
2023-01-29T07:25:49.812Z,20.83
2023-01-29T07:28:20.577Z,20.13
2023-01-29T07:30:47.257Z,21.23
2023-01-29T07:33:13.760Z,19.92
2023-01-29T07:35:42.540Z,19.50
2023-01-29T07:38:10.498Z,19.98
2023-01-29T07:40:37.310Z,20.58
2023-01-29T07:43:06.411Z,20.30
2023-01-29T07:45:35.198Z,19.95
2023-01-29T07:48:01.920Z,20.17
2023-01-29T07:50:28.942Z,17.75
2023-01-29T07:52:55.462Z,19.13
2023-01-29T07:55:22.284Z,18.50
2023-01-29T07:57:55.378Z,18.42
2023-01-29T08:00:22.187Z,19.40
2023-01-29T08:02:48.672Z,20.17
2023-01-29T08:05:15.135Z,20.15
2023-01-29T08:07:41.605Z,18.05
2023-01-29T08:10:08.713Z,18.80
2023-01-29T08:12:35.293Z,17.77
2023-01-29T08:15:01.772Z,18.00
2023-01-29T08:17:28.199Z,16.15
2023-01-29T08:19:54.755Z,17.13
2023-01-29T08:22:21.266Z,16.70
2023-01-29T08:24:59.907Z,16.65
2023-01-29T08:27:29.478Z,17.17
2023-01-29T08:29:55.978Z,16.55
2023-01-29T08:32:22.420Z,18.02
2023-01-29T08:34:56.087Z,17.88
2023-01-29T08:37:22.538Z,17.63
2023-01-29T08:39:49.048Z,17.25
2023-01-29T08:42:15.581Z,17.77
2023-01-29T08:44:42.098Z,17.45
2023-01-29T08:47:08.966Z,17.42
2023-01-29T08:49:35.442Z,17.67
2023-01-29T08:52:03.209Z,17.33
2023-01-29T08:54:30.477Z,17.83
2023-01-29T08:56:56.977Z,19.40
2023-01-29T08:59:23.560Z,18.98
2023-01-29T09:01:50.074Z,18.52
2023-01-29T09:04:16.509Z,19.88
2023-01-29T09:06:42.999Z,18.00
2023-01-29T09:09:09.497Z,18.80
2023-01-29T09:11:35.987Z,19.60
2023-01-29T09:14:02.446Z,18.15
2023-01-29T09:16:30.207Z,18.75
2023-01-29T09:18:56.732Z,20.85
2023-01-29T09:21:23.244Z,19.05
2023-01-29T09:23:50.233Z,20.30
2023-01-29T09:26:16.742Z,20.08
2023-01-29T09:28:43.272Z,20.55
2023-01-29T09:31:09.845Z,21.38
2023-01-29T09:33:36.573Z,20.55
2023-01-29T09:36:04.147Z,19.35
2023-01-29T09:38:30.647Z,20.67
2023-01-29T09:41:06.345Z,20.60
2023-01-29T09:43:55.337Z,20.17
2023-01-29T09:46:44.525Z,21.80
2023-01-29T09:49:22.635Z,20.05
2023-01-29T09:51:52.989Z,19.48
2023-01-29T09:54:23.954Z,20.50
2023-01-29T09:56:55.159Z,16.87
2023-01-29T09:59:23.879Z,17.85
2023-01-29T10:02:10.372Z,15.10
2023-01-29T10:04:49.715Z,18.83
2023-01-29T10:07:40.772Z,18.35
2023-01-29T10:10:47.614Z,20.92
2023-01-29T10:13:39.311Z,17.35
2023-01-29T10:16:18.758Z,21.02
2023-01-29T10:18:51.306Z,20.73
2023-01-29T10:21:27.065Z,22.90
2023-01-29T10:24:05.806Z,19.05
2023-01-29T10:26:34.238Z,21.52
2023-01-29T10:29:02.734Z,30.95
2023-01-29T10:31:36.550Z,24.80
2023-01-29T10:34:21.370Z,19.75
2023-01-29T10:36:50.201Z,17.48
2023-01-29T10:39:19.349Z,16.08
2023-01-29T10:42:22.674Z,15.32
2023-01-29T10:44:57.589Z,17.10
2023-01-29T10:47:30.513Z,16.17
2023-01-29T10:50:06.126Z,15.95
2023-01-29T10:52:41.748Z,20.25
2023-01-29T10:55:40.865Z,16.38
2023-01-29T10:58:12.760Z,16.60
2023-01-29T11:03:27.658Z,15.57
2023-01-29T11:06:11.652Z,15.07
2023-01-29T11:09:04.325Z,13.70
2023-01-29T11:11:39.839Z,16.88
2023-01-29T11:14:18.192Z,12.93
2023-01-29T11:16:47.766Z,14.15
2023-01-29T11:19:15.902Z,15.30
2023-01-29T11:22:01.013Z,14.60
2023-01-29T11:24:28.364Z,14.82
2023-01-29T11:26:59.723Z,14.77
2023-01-29T11:29:41.991Z,14.25
2023-01-29T11:32:14.631Z,15.10
2023-01-29T11:35:03.086Z,15.27
2023-01-29T11:37:48.274Z,14.50
2023-01-29T11:40:27.196Z,14.68
2023-01-29T11:42:53.841Z,15.60
2023-01-29T11:45:20.250Z,18.52
2023-01-29T11:47:54.252Z,18.83
2023-01-29T11:50:24.896Z,14.88
2023-01-29T11:52:51.769Z,15.55
2023-01-29T11:55:23.270Z,18.05
2023-01-29T11:57:58.424Z,14.48
2023-01-29T12:00:28.525Z,15.52
2023-01-29T12:03:02.274Z,14.60
2023-01-29T12:05:28.853Z,15.55
2023-01-29T12:07:59.852Z,15.73
2023-01-29T12:10:33.230Z,15.77
2023-01-29T12:13:09.664Z,15.23
2023-01-29T12:15:40.736Z,16.77
2023-01-29T12:18:23.024Z,15.23
2023-01-29T12:20:59.090Z,15.70
2023-01-29T12:23:43.425Z,13.90
2023-01-29T12:26:37.535Z,15.07
2023-01-29T12:29:09.899Z,15.20
2023-01-29T12:31:44.073Z,13.82
2023-01-29T12:34:45.565Z,14.48
2023-01-29T12:37:38.507Z,13.83
2023-01-29T12:40:16.999Z,14.40
2023-01-29T12:42:48.819Z,14.90
2023-01-29T12:45:21.272Z,15.93
2023-01-29T12:47:53.745Z,15.73
2023-01-29T12:50:26.930Z,15.15
2023-01-29T12:52:58.665Z,13.30
2023-01-29T12:55:29.444Z,14.63
2023-01-29T12:57:57.730Z,11.55
2023-01-29T13:00:28.340Z,14.77
2023-01-29T13:03:16.219Z,15.77
2023-01-29T13:05:59.323Z,14.90
2023-01-29T13:08:38.419Z,13.48
2023-01-29T13:11:11.966Z,14.40
2023-01-29T13:13:54.553Z,15.23
2023-01-29T13:16:31.566Z,14.02
2023-01-29T13:19:02.515Z,15.07
2023-01-29T13:21:43.906Z,15.97
2023-01-29T13:24:16.237Z,16.15
2023-01-29T13:26:47.310Z,15.13
2023-01-29T13:29:23.289Z,16.35
2023-01-29T13:31:52.501Z,16.30
2023-01-29T13:34:24.643Z,15.75
2023-01-29T13:36:57.021Z,15.25
2023-01-29T13:39:32.842Z,15.45
2023-01-29T13:42:01.298Z,17.50
2023-01-29T13:44:38.082Z,16.77
2023-01-29T13:47:25.027Z,17.00
2023-01-29T13:50:02.823Z,15.82
2023-01-29T13:52:43.887Z,17.05
2023-01-29T13:55:21.168Z,15.30
2023-01-29T13:57:50.395Z,18.67
2023-01-29T14:00:24.321Z,15.57
2023-01-29T14:02:56.809Z,15.48
2023-01-29T14:05:32.124Z,16.45
2023-01-29T14:08:13.561Z,15.70
2023-01-29T14:10:42.115Z,15.65
2023-01-29T14:13:11.437Z,18.40
2023-01-29T14:15:41.732Z,15.18
2023-01-29T14:18:08.137Z,15.48
2023-01-29T14:20:48.917Z,15.57
2023-01-29T14:23:35.714Z,15.35
2023-01-29T14:26:05.460Z,14.05
2023-01-29T14:28:34.396Z,16.20
2023-01-29T14:31:01.678Z,15.13
2023-01-29T14:33:34.197Z,13.43
2023-01-29T14:36:07.202Z,14.02
2023-01-29T14:38:34.281Z,14.10
2023-01-29T14:41:32.642Z,14.38
2023-01-29T14:44:53.350Z,13.05
2023-01-29T14:47:28.291Z,14.07
2023-01-29T14:49:56.177Z,14.27
2023-01-29T14:52:43.189Z,13.90
2023-01-29T14:55:22.711Z,14.10
2023-01-29T14:57:50.313Z,13.73
2023-01-29T15:00:39.257Z,14.32
2023-01-29T15:03:16.444Z,13.25
2023-01-29T15:05:43.648Z,13.35
2023-01-29T15:08:29.896Z,16.52
2023-01-29T15:11:18.971Z,15.93
2023-01-29T15:13:56.187Z,15.00
2023-01-29T15:16:32.207Z,13.25
2023-01-29T15:19:15.981Z,13.70
2023-01-29T15:22:05.528Z,12.38
2023-01-29T15:24:32.365Z,12.63
2023-01-29T15:26:59.016Z,12.82
2023-01-29T15:29:27.918Z,12.60
2023-01-29T15:31:56.744Z,13.60
2023-01-29T15:34:23.523Z,13.23
2023-01-29T15:36:50.621Z,11.80
2023-01-29T15:39:17.092Z,12.18
2023-01-29T15:41:44.927Z,13.68
2023-01-29T15:44:16.813Z,12.25
2023-01-29T15:49:33.609Z,12.10
2023-01-29T15:52:04.960Z,14.60
2023-01-29T15:54:33.603Z,12.40
2023-01-29T15:57:01.820Z,12.63
2023-01-29T15:59:35.634Z,12.98
2023-01-29T16:02:30.215Z,11.32
2023-01-29T16:04:57.050Z,10.93
2023-01-29T16:07:23.701Z,11.20
2023-01-29T16:09:52.616Z,16.55
2023-01-29T16:12:19.719Z,10.40
2023-01-29T16:14:48.546Z,10.80
2023-01-29T16:17:35.762Z,12.80
2023-01-29T16:20:05.337Z,11.57
2023-01-29T16:22:41.037Z,13.75
2023-01-29T16:25:14.759Z,11.40
2023-01-29T16:27:44.277Z,13.50
2023-01-29T16:30:16.293Z,11.35
2023-01-29T16:32:43.024Z,12.25
2023-01-29T16:35:16.455Z,16.13
2023-01-29T16:37:48.847Z,14.40
2023-01-29T16:40:33.764Z,13.98
2023-01-29T16:43:18.153Z,12.38
2023-01-29T16:46:03.538Z,11.93
2023-01-29T16:48:34.779Z,12.40
2023-01-29T16:51:12.310Z,11.57
2023-01-29T16:53:38.929Z,13.35
2023-01-29T16:56:08.407Z,13.55
2023-01-29T16:58:35.394Z,13.05
2023-01-29T17:01:11.074Z,11.65
2023-01-29T17:03:39.136Z,12.70
2023-01-29T17:06:13.779Z,12.93
2023-01-29T17:08:43.606Z,14.15
2023-01-29T17:11:13.372Z,13.57
2023-01-29T17:13:43.828Z,13.52
2023-01-29T17:16:19.497Z,15.10
2023-01-29T17:18:46.110Z,14.02
2023-01-29T17:21:12.612Z,14.77
2023-01-29T17:23:39.803Z,13.57
2023-01-29T17:26:09.768Z,12.52
2023-01-29T17:28:36.276Z,11.60
2023-01-29T17:31:06.681Z,13.90
2023-01-29T17:33:42.451Z,12.75
2023-01-29T17:36:13.915Z,12.90
2023-01-29T17:38:41.413Z,14.25
2023-01-29T17:41:30.072Z,14.48
2023-01-29T17:43:56.602Z,13.40
2023-01-29T17:46:23.071Z,12.40
2023-01-29T17:48:49.709Z,13.35
2023-01-29T17:51:17.781Z,12.45
2023-01-29T17:53:46.655Z,11.85
2023-01-29T17:56:18.735Z,11.88
2023-01-29T17:58:45.318Z,13.60
2023-01-29T18:01:11.816Z,13.73
2023-01-29T18:03:38.399Z,13.27
2023-01-29T18:06:08.055Z,12.32
2023-01-29T18:08:36.834Z,12.65
2023-01-29T18:11:03.500Z,9.95
2023-01-29T18:13:30.018Z,11.82
2023-01-29T18:15:56.559Z,14.45
2023-01-29T18:18:24.290Z,14.68
2023-01-29T18:20:51.198Z,15.88
2023-01-29T18:23:17.704Z,15.48
2023-01-29T18:25:44.851Z,16.73
2023-01-29T18:28:19.219Z,15.00
2023-01-29T18:30:47.310Z,17.65
2023-01-29T18:33:15.516Z,13.70
2023-01-29T18:35:44.557Z,12.52
2023-01-29T18:38:11.406Z,14.68
2023-01-29T18:40:37.910Z,12.20
2023-01-29T18:43:04.360Z,12.40
2023-01-29T18:45:31.025Z,13.52
2023-01-29T18:47:57.678Z,12.00
2023-01-29T18:50:26.285Z,13.73
2023-01-29T18:52:53.985Z,13.77
2023-01-29T18:55:21.204Z,14.10
2023-01-29T18:58:36.059Z,14.60
2023-01-29T19:00:34.569Z,12.13
2023-01-29T19:03:01.094Z,15.95
2023-01-29T19:05:27.895Z,12.55
2023-01-29T19:07:54.395Z,12.77
2023-01-29T19:10:20.864Z,14.77
2023-01-29T19:12:47.723Z,14.20
2023-01-29T19:15:14.264Z,16.50
2023-01-29T19:17:40.740Z,17.67
2023-01-29T19:20:09.554Z,15.68
2023-01-29T19:22:36.247Z,15.10
2023-01-29T19:25:02.781Z,17.33
2023-01-29T19:27:30.545Z,16.85
2023-01-29T19:30:02.369Z,16.55
2023-01-29T19:32:28.945Z,16.35
2023-01-29T19:34:55.558Z,18.35
2023-01-29T19:37:22.358Z,17.77
2023-01-29T19:39:48.813Z,17.40
2023-01-29T19:42:15.533Z,17.67
2023-01-29T19:44:41.975Z,19.00
2023-01-29T19:47:08.715Z,17.55
2023-01-29T19:49:39.341Z,16.67
2023-01-29T19:52:07.958Z,18.52
2023-01-29T19:54:34.401Z,18.17
2023-01-29T19:57:00.888Z,18.55
2023-01-29T19:59:27.344Z,17.58
2023-01-29T20:01:53.824Z,17.83
2023-01-29T20:04:20.453Z,17.40
2023-01-29T20:06:46.921Z,16.85
2023-01-29T20:09:13.411Z,14.90
2023-01-29T20:11:39.840Z,17.73
2023-01-29T20:14:06.375Z,17.83
2023-01-29T20:16:32.839Z,19.65
2023-01-29T20:19:14.398Z,18.55
2023-01-29T20:21:42.800Z,16.58
2023-01-29T20:24:13.387Z,17.48
2023-01-29T20:26:40.048Z,19.55
2023-01-29T20:29:06.854Z,17.00
2023-01-29T20:31:33.718Z,19.45
2023-01-29T20:34:03.678Z,18.50
2023-01-29T20:36:30.147Z,19.48
2023-01-29T20:38:56.711Z,17.30
2023-01-29T20:41:23.212Z,17.35
2023-01-29T20:43:53.124Z,18.42
2023-01-29T20:46:20.685Z,18.80
2023-01-29T20:48:48.721Z,16.35
2023-01-29T20:51:20.241Z,14.18
2023-01-29T20:53:47.997Z,17.63
2023-01-29T20:56:16.979Z,17.30
2023-01-29T20:58:44.113Z,16.63
2023-01-29T21:01:24.089Z,18.02
2023-01-29T21:03:56.883Z,17.48
2023-01-29T21:06:24.883Z,18.45
2023-01-29T21:08:51.455Z,17.88
2023-01-29T21:11:18.134Z,17.90
2023-01-29T21:13:46.792Z,20.73
2023-01-29T21:16:13.440Z,19.65
2023-01-29T21:18:42.794Z,19.27
2023-01-29T21:21:12.467Z,16.95
2023-01-29T21:23:38.951Z,18.77
2023-01-29T21:26:08.409Z,16.15
2023-01-29T21:28:35.219Z,17.88
2023-01-29T21:31:06.431Z,19.10
2023-01-29T21:33:34.343Z,20.20
2023-01-29T21:36:01.842Z,18.08
2023-01-29T21:38:28.521Z,19.00
2023-01-29T21:41:02.748Z,18.23
2023-01-29T21:43:29.278Z,19.02
2023-01-29T21:46:01.225Z,18.55
2023-01-29T21:48:27.756Z,17.15
2023-01-29T21:50:54.278Z,17.90
2023-01-29T21:53:20.871Z,16.42
2023-01-29T21:55:47.843Z,17.50
2023-01-29T21:58:14.847Z,12.05
2023-01-29T22:00:41.382Z,15.70
2023-01-29T22:03:11.270Z,14.02
2023-01-29T22:05:41.244Z,16.17
2023-01-29T22:08:07.819Z,14.25
2023-01-29T22:10:36.469Z,15.40
2023-01-29T22:13:06.244Z,16.05
2023-01-29T22:15:32.795Z,16.52
2023-01-29T22:17:59.416Z,15.35
2023-01-29T22:20:30.172Z,14.73
2023-01-29T22:23:00.601Z,15.38
2023-01-29T22:25:27.820Z,15.73
2023-01-29T22:28:00.265Z,12.98
2023-01-29T22:30:27.087Z,15.63
2023-01-29T22:33:01.268Z,15.35
2023-01-29T22:35:37.193Z,14.75
2023-01-29T22:38:04.515Z,14.65
2023-01-29T22:40:31.031Z,15.05
2023-01-29T22:42:58.355Z,13.88
2023-01-29T22:45:24.906Z,14.68
2023-01-29T22:47:51.353Z,16.17
2023-01-29T22:50:18.391Z,15.70
2023-01-29T22:53:01.572Z,15.57
2023-01-29T22:55:34.593Z,16.05
2023-01-29T22:58:01.575Z,16.23
2023-01-29T23:00:28.276Z,15.95
2023-01-29T23:02:54.727Z,15.55
2023-01-29T23:05:24.481Z,16.13
2023-01-29T23:07:50.964Z,17.25
2023-01-29T23:10:17.751Z,10.73
2023-01-29T23:12:44.399Z,17.05
2023-01-29T23:15:11.104Z,18.60
2023-01-29T23:17:39.604Z,16.58
2023-01-29T23:20:11.307Z,17.83
2023-01-29T23:22:38.234Z,17.77
2023-01-29T23:25:05.204Z,18.10
2023-01-29T23:27:33.384Z,19.10
2023-01-29T23:29:59.885Z,18.85
2023-01-29T23:32:29.346Z,16.65
2023-01-29T23:34:55.884Z,15.82
2023-01-29T23:37:22.585Z,18.50
2023-01-29T23:39:49.431Z,16.83
2023-01-29T23:42:15.963Z,18.08
2023-01-29T23:44:44.693Z,19.42
2023-01-29T23:47:11.183Z,17.73
2023-01-29T23:49:37.728Z,19.95
2023-01-29T23:52:09.898Z,18.58
2023-01-29T23:54:36.379Z,17.63
2023-01-29T23:57:02.962Z,17.73
2023-01-29T23:59:29.515Z,17.83
